Latest Coastal Weather Observations for Cerberus

IDV60701

Issued at 11:25 pm EST Saturday 23 August 2014 (issued every 10 minutes, with the page automatically refreshed every 10 minutes)

About coastal observations | Map of coastal stations | Coastal observations for VIC | Marine services | Other Formats
Station Details ID: 086361 Name: CERBERUS Lat: -38.36 Lon: 145.18 Height: 12.69 m
Data from the previous 72 hours. | See also: Recent months at Cerberus
Date/Time
EST
Temp

°C
Wind Pressure Rain
since 9am
mm
Weather Cloud Vis
km
Sea
Height
m
Swell
Dir
 
Speed
knots
Gust
knots
hPa Trend Height
m
Period
s
Dir
23/11:00pm 13.4 W 3 4 1024.8 - 0.2 - - - - - - -
23/10:30pm 14.7 NW 4 7 1024.5 - 0.2 - - - - - - -
23/10:00pm 14.1 NNE 4 6 1024.2 - 0.2 - - - - - - -
23/09:30pm 13.6 NNE 4 7 1024.1 - 0.2 - - - - - - -
23/09:00pm 13.6 NE 5 8 1024.1 - 0.2 - - - - - - -
23/08:30pm 13.8 NNE 5 9 1024.1 - 0.2 - - - - - - -
23/08:00pm 13.7 NNE 5 8 1024.1 - 0.2 - - - - - - -
23/07:30pm 14.4 NE 5 10 1024.4 - 0.2 - - - - - - -
23/07:00pm 14.6 NNE 5 9 1024.6 - 0.2 - - - - - - -
23/06:30pm 15.0 NNE 5 7 1024.6 - 0.2 - - - - - - -
23/06:00pm 16.1 NNE 4 6 1024.8 - 0.2 - - - - - - -
23/05:30pm 17.1 NNE 4 7 1024.7 - 0.2 - - - - - - -
23/05:00pm 18.1 N 5 10 1024.5 - 0.2 - - - - - - -
23/04:30pm 18.4 NNE 6 12 1024.5 - 0.2 - - - - - - -
23/04:00pm 18.3 NNE 7 14 1024.4 - 0.2 - - - - - - -
23/03:30pm 19.2 NNE 5 13 1024.4 - 0.2 - - - - - - -
23/03:00pm 19.0 NNE 8 13 1024.7 - 0.2 - - - - - - -
23/02:30pm 19.0 NE 6 10 1025.0 - 0.2 - - - - - - -
23/02:00pm 18.4 NE 7 12 1025.2 - 0.2 - - - - - - -
23/01:30pm 18.6 NE 7 13 1025.7 - 0.2 - - - - - - -
23/01:00pm 18.1 NE 6 11 1026.0 - 0.2 - - - - - - -
23/12:30pm 18.2 NE 6 12 1026.7 - 0.0 - - - - - - -
23/12:00pm 17.5 NE 6 9 1027.2 - 0.0 - - - - - - -
23/11:30am 16.2 NE 4 9 1027.8 - 0.0 - - - - - - -
23/11:00am 15.5 NNE 5 8 1028.4 - 0.0 - - - - - - -
23/10:30am 14.3 NE 3 6 1028.8 - 0.0 - - - - - - -
23/10:00am 12.6 NNE 5 7 1028.8 - 0.0 - - - - - - -
23/09:30am 12.1 NE 3 7 1028.9 - 0.0 - - - - - - -
23/09:00am 10.8 NNE 5 7 1029.1 - 0.0 - - - - - - -
23/08:30am 9.7 N 3 5 1029.2 - 0.0 - - - - - - -
23/08:00am 7.9 CALM 0 2 1029.0 - 0.0 - - - - - - -
23/07:30am 6.7 NNE 1 2 1028.8 - 0.0 - - - - - - -
23/07:00am 6.3 CALM 0 0 1028.5 - 0.0 - - - - - - -
23/06:30am 6.5 CALM 0 0 1028.3 - 0.0 - - - - - - -
23/06:00am 6.3 NNE 1 2 1028.1 - 0.0 - - - - - - -
23/05:30am 6.5 NNE 2 2 1028.0 - 0.0 - - - - - - -
23/05:00am 6.9 NNE 2 2 1027.8 - 0.0 - - - - - - -
23/04:30am 7.2 NNE 1 2 1027.6 - 0.0 - - - - - - -
23/04:00am 7.3 NNE 2 2 1027.6 - 0.0 - - - - - - -
23/03:30am 6.8 NNE 1 2 1027.6 - 0.0 - - - - - - -
23/03:00am 7.0 NNE 2 2 1027.8 - 0.0 - - - - - - -
23/02:30am 7.5 NNE 2 2 1028.0 - 0.0 - - - - - - -
23/02:00am 7.9 NNE 2 3 1028.1 - 0.0 - - - - - - -
23/01:30am 8.6 N 1 4 1028.2 - 0.0 - - - - - - -
23/01:00am 7.5 CALM 0 0 1028.1 - 0.0 - - - - - - -
23/12:30am 8.3 N 1 2 1028.1 - 0.0 - - - - - - -
23/12:00am 8.4 N 1 3 1028.2 - 0.0 - - - - - - -
 
Date/Time
EST
Temp

°C
Wind Pressure Rain
since 9am
mm
Weather Cloud Vis
km
Sea
Height
m
Swell
Dir
 
Speed
knots
Gust
knots
hPa Trend Height
m
Period
s
Dir
22/11:30pm 9.2 NNE 2 3 1028.3 - 0.0 - - - - - - -
22/11:00pm 8.6 NNE 2 4 1028.5 - 0.0 - - - - - - -
22/10:30pm 7.5 SSW 2 3 1028.6 - 0.0 - - - - - - -
22/10:00pm 6.8 SSW 1 2 1028.8 - 0.0 - - - - - - -
22/09:30pm 7.1 CALM 0 0 1029.1 - 0.0 - - - - - - -
22/09:00pm 7.4 SSW 1 2 1029.0 - 0.0 - - - - - - -
22/08:30pm 8.2 SSW 1 2 1028.9 - 0.0 - - - - - - -
22/08:00pm 8.7 SSW 2 3 1028.9 - 0.0 - - - - - - -
22/07:30pm 9.3 SE 1 2 1028.8 - 0.0 - - - - - - -
22/07:00pm 11.1 CALM 0 2 1028.8 - 0.0 - - - - - - -
22/06:30pm 12.4 SE 3 5 1028.6 - 0.0 - - - - - - -
22/06:00pm 13.4 ESE 3 6 1028.3 - 0.0 - - - - - - -
22/05:30pm 14.6 SE 3 5 1028.3 - 0.0 - - - - - - -
22/05:00pm 15.9 ESE 4 7 1028.2 - 0.0 - - - - - - -
22/04:30pm 16.6 ESE 4 7 1028.0 - 0.0 - - - - - - -
22/04:00pm 17.1 ESE 5 8 1027.9 - 0.0 - - - - - - -
22/03:30pm 17.1 ESE 6 8 1028.0 - 0.0 - - - - - - -
22/03:00pm 17.9 E 4 6 1028.3 - 0.0 - - - - - - -
22/02:30pm 17.9 E 4 8 1028.5 - 0.0 - - - - - - -
22/02:00pm 17.9 E 4 6 1028.8 - 0.0 - - - - - - -
22/01:30pm 18.0 NNE 3 5 1029.0 - 0.0 - - - - - - -
22/01:00pm 17.2 NE 3 6 1029.4 - 0.0 - - - - - - -
22/12:30pm 16.7 NNE 3 5 1029.8 - 0.0 - - - - - - -
22/12:00pm 16.1 NE 5 8 1030.2 - 0.0 - - - - - - -
22/11:30am 15.3 ENE 4 6 1030.7 - 0.0 - - - - - - -
22/11:00am 14.2 ENE 4 6 1030.9 - 0.0 - - - - - - -
22/10:30am 12.7 N 3 5 1031.1 - 0.0 - - - - - - -
22/10:00am 11.3 NE 5 7 1031.2 - 0.0 - - - - - - -
22/09:30am 10.8 NNE 4 8 1031.3 - 0.0 - - - - - - -
22/09:00am 10.3 NNE 4 7 1031.4 - 0.0 - - - - - - -
22/08:30am 9.2 NNE 3 6 1031.4 - 0.0 - - - - - - -
22/08:00am 7.7 N 2 4 1031.2 - 0.0 - - - - - - -
22/07:30am 6.5 N 2 4 1030.9 - 0.0 - - - - - - -
22/07:00am 5.5 N 1 2 1030.6 - 0.0 - - - - - - -
22/06:30am 4.7 N 1 2 1030.4 - 0.0 - - - - - - -
22/06:00am 5.6 N 2 2 1030.2 - 0.0 - - - - - - -
22/05:30am 4.2 N 2 3 1030.1 - 0.0 - - - - - - -
22/05:00am 4.6 N 2 3 1030.0 - 0.0 - - - - - - -
22/04:30am 6.4 CALM 0 0 1029.7 - 0.0 - - - - - - -
22/04:00am 6.3 N 1 1 1029.6 - 0.0 - - - - - - -
22/03:30am 7.5 N 2 2 1029.6 - 0.0 - - - - - - -
22/03:00am 7.8 N 2 3 1029.5 - 0.0 - - - - - - -
22/02:30am 8.7 N 2 4 1029.6 - 0.0 - - - - - - -
22/02:00am 9.1 N 2 5 1029.8 - 0.0 - - - - - - -
22/01:30am 9.2 NNE 3 5 1029.8 - 0.0 - - - - - - -
22/01:00am 9.5 N 3 5 1029.8 - 0.0 - - - - - - -
22/12:30am 9.9 NNE 4 7 1029.8 - 0.0 - - - - - - -
22/12:00am 10.2 NNE 4 9 1029.9 - 0.0 - - - - - - -
 
Date/Time
EST
Temp

°C
Wind Pressure Rain
since 9am
mm
Weather Cloud Vis
km
Sea
Height
m
Swell
Dir
 
Speed
knots
Gust
knots
hPa Trend Height
m
Period
s
Dir
21/11:30pm 10.2 NE 3 7 1029.9 - 0.0 - - - - - - -
21/11:00pm 10.4 NNE 4 8 1029.8 - 0.0 - - - - - - -
21/10:30pm 10.7 NNE 5 9 1029.8 - 0.0 - - - - - - -
21/10:00pm 10.9 NNE 5 10 1029.9 - 0.0 - - - - - - -
21/09:30pm 10.9 NNE 5 7 1029.8 - 0.0 - - - - - - -
21/09:00pm 10.9 NNE 3 6 1029.7 - 0.0 - - - - - - -
21/08:30pm 11.0 NNE 3 5 1029.5 - 0.0 - - - - - - -
21/08:00pm 11.9 ENE 4 8 1029.2 - 0.0 - - - - - - -
21/07:30pm 12.0 ENE 3 6 1029.1 - 0.0 - - - - - - -
21/07:00pm 12.1 ENE 4 7 1028.8 - 0.0 - - - - - - -
21/06:30pm 12.3 ENE 3 5 1028.5 - 0.0 - - - - - - -
21/06:00pm 12.6 E 2 3 1028.3 - 0.0 - - - - - - -
21/05:30pm 13.4 CALM 0 2 1028.1 - 0.0 - - - - - - -
21/05:00pm 14.5 ESE 2 3 1027.8 - 0.0 - - - - - - -
21/04:30pm 15.1 E 3 5 1027.6 - 0.0 - - - - - - -
21/04:00pm 15.2 ESE 4 6 1027.4 - 0.0 - - - - - - -
21/03:30pm 15.8 NE 3 6 1027.3 - 0.0 - - - - - - -
21/03:00pm 15.8 E 5 8 1027.4 - 0.0 - - - - - - -
21/02:30pm 15.7 ENE 4 7 1027.5 - 0.0 - - - - - - -
21/02:00pm 15.2 NNE 4 7 1027.7 - 0.0 - - - - - - -
21/01:30pm 14.2 NNE 3 6 1027.9 - 0.0 - - - - - - -
21/01:00pm 13.9 NNE 4 7 1028.3 - 0.0 - - - - - - -
21/12:30pm 13.6 NE 6 10 1028.5 - 0.0 - - - - - - -
21/12:00pm 12.7 NNE 6 10 1028.9 - 0.0 - - - - - - -
21/11:30am 12.1 NE 5 9 1029.4 - 0.0 - - - - - - -
21/11:00am 11.7 NE 4 7 1029.7 - 0.0 - - - - - - -
21/10:30am 11.6 NE 7 14 1029.8 - 0.0 - - - - - - -
21/10:00am 10.9 NE 6 11 1029.6 - 0.0 - - - - - - -
21/09:30am 10.1 ENE 7 11 1029.6 - 0.0 - - - - - - -
21/09:00am 9.6 ENE 8 12 1029.6 - 0.0 - - - - - - -
21/08:30am 7.7 ENE 4 8 1029.5 - 0.0 - - - - - - -
21/08:00am 5.8 E 3 5 1029.4 - 0.0 - - - - - - -
21/07:30am 2.4 E 1 1 1029.2 - 0.0 - - - - - - -
21/07:00am 2.0 E 2 3 1028.9 - 0.0 - - - - - - -
21/06:30am 2.0 SSE 1 4 1028.6 - 0.0 - - - - - - -
21/06:00am 2.1 CALM 0 0 1028.4 - 0.0 - - - - - - -
21/05:30am 2.2 WSW 1 2 1028.3 - 0.0 - - - - - - -
21/05:00am 1.9 WSW 1 2 1028.3 - 0.0 - - - - - - -
21/04:30am 2.5 WSW 1 2 1028.1 - 0.0 - - - - - - -
21/04:00am 2.2 WSW 1 2 1028.1 - 0.0 - - - - - - -
21/03:30am 2.8 SW 2 4 1028.0 - 0.0 - - - - - - -
21/03:00am 2.4 CALM 0 0 1027.9 - 0.0 - - - - - - -
21/02:30am 2.8 S 1 2 1028.0 - 0.0 - - - - - - -
21/02:00am 3.2 S 1 3 1028.1 - 0.0 - - - - - - -
21/01:30am 3.6 S 1 3 1028.2 - 0.0 - - - - - - -
21/01:00am 3.0 S 3 3 1028.3 - 0.0 - - - - - - -
21/12:30am 2.0 CALM 0 1 1028.3 - 0.0 - - - - - - -
21/12:00am 2.9 CALM 0 0 1028.2 - 0.0 - - - - - - -
 
Date/Time
EST
Temp

°C
Wind Pressure Rain
since 9am
mm
Weather Cloud Vis
km
Sea
Height
m
Swell
Dir
 
Speed
knots
Gust
knots
hPa Trend Height
m
Period
s
Dir
20/11:30pm 3.0 S 1 2 1028.4 - 0.0 - - - - - - -

Other Formats:

Comma delimited format used in spreadsheet applications
http://www.bom.gov.au/fwo/IDV60701/IDV60701.94898.axf

JavaScript Object Notation format (JSON) in row-major order
http://www.bom.gov.au/fwo/IDV60701/IDV60701.94898.json